Time;durP1;ratioP1;P1;durP2;ratioP2;P2;SDS_P1;SDS_P2;PMS_P1;PMS_P2;Temp;Humidity;BMP_temperature;BMP_pressure;BME280_temperature;BME280_humidity;BME280_pressure;Samples;Min_cycle;Max_cycle;Signal;HPM_P1;HPM_P2
2023/10/22 00:02:09;;;;;;;5.97;1.98;;;;;;;21.67;83.21;99390.03;5034221;28;20133;-39
2023/10/22 00:04:34;;;;;;;3.13;2.00;;;;;;;21.67;83.58;99393.63;5027366;28;20024;-39
2023/10/22 00:07:00;;;;;;;5.45;2.20;;;;;;;21.67;83.26;99392.78;5021821;28;20082;-38
2023/10/22 00:09:25;;;;;;;3.05;2.05;;;;;;;21.65;83.26;99387.63;5018752;28;20033;-39
2023/10/22 00:11:50;;;;;;;5.32;2.15;;;;;;;21.65;83.27;99393.13;5021603;28;20177;-39
2023/10/22 00:14:16;;;;;;;4.22;2.08;;;;;;;21.63;83.37;99387.97;5031877;28;20571;-38
2023/10/22 00:16:41;;;;;;;5.68;2.28;;;;;;;21.63;83.73;99385.22;5037129;28;21059;-39
2023/10/22 00:19:07;;;;;;;4.65;2.35;;;;;;;21.63;83.47;99395.41;5002331;28;20171;-39
2023/10/22 00:21:33;;;;;;;4.35;2.28;;;;;;;21.63;83.76;99389.91;5010885;28;20609;-39
2023/10/22 00:23:58;;;;;;;5.13;2.53;;;;;;;21.64;83.96;99399.78;5032059;28;20032;-39
2023/10/22 00:26:24;;;;;;;4.20;2.33;;;;;;;21.60;83.88;99407.91;5034900;28;20036;-39
2023/10/22 00:28:49;;;;;;;4.15;2.40;;;;;;;21.60;83.79;99413.44;5026264;28;20068;-39
2023/10/22 00:31:14;;;;;;;3.92;2.10;;;;;;;21.61;83.88;99408.75;5032896;28;20115;-39
2023/10/22 00:33:40;;;;;;;4.25;2.10;;;;;;;21.63;83.92;99415.53;5036924;28;20475;-39
2023/10/22 00:36:05;;;;;;;3.65;2.30;;;;;;;21.65;83.99;99417.94;5033021;28;20035;-39
2023/10/22 00:38:31;;;;;;;4.45;2.40;;;;;;;21.67;84.13;99429.47;5026669;28;21017;-39
2023/10/22 00:40:56;;;;;;;5.50;2.72;;;;;;;21.70;83.98;99430.72;5035126;28;20214;-38
2023/10/22 00:43:21;;;;;;;5.03;2.85;;;;;;;21.72;83.99;99440.28;5031528;28;20102;-39
2023/10/22 00:45:47;;;;;;;3.92;2.53;;;;;;;21.72;84.01;99442.25;5031756;28;20045;-38
2023/10/22 00:48:15;;;;;;;6.05;3.15;;;;;;;21.69;84.36;99440.97;5034451;28;20135;-39
2023/10/22 00:50:40;;;;;;;6.65;2.60;;;;;;;21.68;84.46;99446.78;5033369;28;20123;-39
2023/10/22 00:53:08;;;;;;;5.15;2.75;;;;;;;21.69;84.45;99448.41;5033625;28;20051;-47
2023/10/22 00:55:39;;;;;;;3.95;2.30;;;;;;;21.68;84.66;99457.81;5034782;28;20078;-51
2023/10/22 00:58:05;;;;;;;6.80;2.67;;;;;;;21.68;84.72;99466.91;5028544;28;20123;-46
2023/10/22 01:00:32;;;;;;;4.40;2.78;;;;;;;21.66;84.71;99460.91;5030979;28;20059;-48
2023/10/22 01:03:00;;;;;;;6.22;2.85;;;;;;;21.65;85.05;99464.81;5033545;28;20078;-47
2023/10/22 01:05:26;;;;;;;5.32;2.80;;;;;;;21.65;85.03;99473.09;5035420;28;20024;-48
2023/10/22 01:07:52;;;;;;;4.15;2.83;;;;;;;21.64;85.23;99485.25;5032935;28;20561;-49
2023/10/22 01:10:17;;;;;;;6.18;2.70;;;;;;;21.62;84.98;99482.03;5034462;28;20375;-47
2023/10/22 01:12:42;;;;;;;8.23;2.92;;;;;;;21.62;84.96;99499.38;5035448;28;20144;-49
2023/10/22 01:15:08;;;;;;;6.47;2.92;;;;;;;21.63;85.34;99500.19;5032611;28;20032;-47
2023/10/22 01:17:33;;;;;;;3.92;2.72;;;;;;;21.63;85.45;99501.00;5027503;28;21236;-47
2023/10/22 01:19:59;;;;;;;9.35;3.00;;;;;;;21.63;85.15;99508.44;5009045;28;20135;-39
2023/10/22 01:22:24;;;;;;;5.05;2.88;;;;;;;21.64;85.28;99512.81;5007834;28;20280;-39
2023/10/22 01:24:49;;;;;;;5.32;2.70;;;;;;;21.63;85.62;99513.97;5035683;28;20461;-38
2023/10/22 01:27:15;;;;;;;6.40;2.90;;;;;;;21.62;85.78;99515.91;5016579;28;20471;-38
2023/10/22 01:29:40;;;;;;;5.95;2.88;;;;;;;21.63;85.38;99520.31;5032617;28;20523;-39
2023/10/22 01:32:06;;;;;;;5.22;2.60;;;;;;;21.63;85.49;99517.53;5033277;28;20036;-39
2023/10/22 01:34:31;;;;;;;6.88;2.95;;;;;;;21.62;85.44;99526.16;5032582;28;20037;-39
2023/10/22 01:36:57;;;;;;;6.85;3.00;;;;;;;21.62;85.82;99528.91;5033168;28;20045;-39
2023/10/22 01:39:22;;;;;;;7.53;2.67;;;;;;;21.61;85.99;99536.34;5032049;28;20037;-47
2023/10/22 01:41:49;;;;;;;5.40;3.05;;;;;;;21.61;86.21;99546.59;5034020;28;20039;-39
2023/10/22 01:44:15;;;;;;;3.53;2.40;;;;;;;21.61;86.01;99549.34;5016225;28;20033;-47
2023/10/22 01:46:40;;;;;;;4.40;2.20;;;;;;;21.60;86.06;99548.53;5035153;28;20561;-48
2023/10/22 01:49:06;;;;;;;4.40;2.60;;;;;;;21.60;86.46;99562.31;5033891;28;20028;-49
2023/10/22 01:51:31;;;;;;;6.03;2.40;;;;;;;21.59;87.20;99566.22;5035876;28;20105;-46
2023/10/22 01:53:57;;;;;;;4.90;2.50;;;;;;;21.58;86.80;99577.56;5037083;28;20028;-38
2023/10/22 01:56:23;;;;;;;7.22;2.63;;;;;;;21.58;86.87;99586.66;5036580;28;20043;-38
2023/10/22 01:58:48;;;;;;;5.15;2.50;;;;;;;21.57;86.77;99612.59;5036354;28;20407;-38
2023/10/22 02:01:13;;;;;;;8.32;2.88;;;;;;;21.58;86.83;99618.91;5021900;28;20029;-49
2023/10/22 02:03:44;;;;;;;4.97;2.58;;;;;;;21.57;86.53;99623.63;5036440;28;20093;-47
2023/10/22 02:06:13;;;;;;;5.35;2.60;;;;;;;21.57;86.77;99636.59;5036648;28;20404;-48
2023/10/22 02:08:39;;;;;;;5.63;2.67;;;;;;;21.57;86.93;99642.94;5023376;28;20634;-46
2023/10/22 02:11:05;;;;;;;5.32;2.28;;;;;;;21.58;86.57;99652.81;5017907;28;20304;-47
2023/10/22 02:13:31;;;;;;;7.28;2.40;;;;;;;21.57;86.87;99659.47;5038051;28;20110;-47
2023/10/22 02:15:57;;;;;;;5.68;2.45;;;;;;;21.57;86.74;99670.50;5038376;28;20043;-47
2023/10/22 02:18:23;;;;;;;6.68;2.08;;;;;;;21.58;86.63;99679.56;5036818;28;20552;-47
2023/10/22 02:21:03;;;;;;;4.95;2.50;;;;;;;21.56;86.95;99690.09;4999362;28;20087;-39
2023/10/22 02:23:28;;;;;;;7.07;2.60;;;;;;;21.57;86.77;99695.31;5020678;28;20048;-39
2023/10/22 02:25:54;;;;;;;3.50;2.08;;;;;;;21.57;86.71;99705.50;4986701;28;20902;-39
2023/10/22 02:28:19;;;;;;;3.25;1.98;;;;;;;21.57;86.81;99706.34;5019952;28;20068;-39
2023/10/22 02:30:47;;;;;;;5.13;2.20;;;;;;;21.57;86.74;99722.88;5019312;28;20112;-39
2023/10/22 02:33:13;;;;;;;5.88;1.98;;;;;;;21.57;86.98;99733.91;5018654;28;20040;-39
2023/10/22 02:35:42;;;;;;;4.78;2.33;;;;;;;21.58;87.11;99730.00;5017897;28;21062;-39
2023/10/22 02:38:10;;;;;;;4.63;1.88;;;;;;;21.59;86.84;99752.88;5020551;28;20505;-39
2023/10/22 02:40:35;;;;;;;5.20;2.17;;;;;;;21.58;86.76;99757.59;5020658;28;20032;-40
2023/10/22 02:43:02;;;;;;;4.70;2.40;;;;;;;21.58;86.75;99771.38;5019162;28;20041;-38
2023/10/22 02:45:28;;;;;;;3.63;2.00;;;;;;;21.59;86.93;99778.50;5020146;28;20181;-38
2023/10/22 02:47:53;;;;;;;4.18;2.40;;;;;;;21.59;86.51;99796.97;5020188;28;20036;-38
2023/10/22 02:50:19;;;;;;;6.28;2.10;;;;;;;21.57;86.32;99796.50;5020817;28;20039;-38
2023/10/22 02:52:44;;;;;;;5.88;2.53;;;;;;;21.57;86.54;99813.84;5019549;28;20375;-37
2023/10/22 02:55:09;;;;;;;3.80;2.05;;;;;;;21.58;86.49;99820.16;5019282;28;20041;-39
2023/10/22 02:57:35;;;;;;;5.10;2.00;;;;;;;21.57;86.76;99819.38;5020680;28;20041;-38
2023/10/22 03:00:00;;;;;;;4.15;2.15;;;;;;;21.57;86.37;99824.06;5021022;28;20075;-38
2023/10/22 03:02:26;;;;;;;5.80;1.90;;;;;;;21.56;86.39;99838.97;5018701;28;20040;-38
2023/10/22 03:04:51;;;;;;;4.68;2.25;;;;;;;21.57;86.37;99854.38;5019606;28;20043;-38
2023/10/22 03:07:17;;;;;;;4.15;1.90;;;;;;;21.56;86.12;99852.75;5018065;28;20044;-38
2023/10/22 03:09:42;;;;;;;4.72;1.98;;;;;;;21.55;86.71;99865.72;5020660;28;20036;-38
2023/10/22 03:12:08;;;;;;;3.72;1.80;;;;;;;21.53;86.30;99870.72;4998671;28;20488;-38
2023/10/22 03:14:33;;;;;;;3.60;1.80;;;;;;;21.53;86.03;99881.75;5019258;28;20584;-39
2023/10/22 03:16:59;;;;;;;4.15;1.98;;;;;;;21.53;86.43;99884.50;5019676;28;20036;-38
2023/10/22 03:19:24;;;;;;;3.47;1.80;;;;;;;21.52;85.58;99882.91;5028388;28;20052;-38
2023/10/22 03:21:51;;;;;;;2.58;1.70;;;;;;;21.52;86.45;99904.13;5037670;28;20678;-38
2023/10/22 03:24:17;;;;;;;3.95;1.70;;;;;;;21.51;86.17;99913.53;5004584;28;20170;-38
2023/10/22 03:26:43;;;;;;;3.60;1.83;;;;;;;21.50;86.52;99909.19;5037962;28;21047;-38
2023/10/22 03:29:08;;;;;;;4.93;2.03;;;;;;;21.49;86.50;99913.88;5021766;28;20185;-38
2023/10/22 03:31:34;;;;;;;3.97;2.00;;;;;;;21.48;86.85;99921.34;5019497;28;20481;-37
2023/10/22 03:33:59;;;;;;;2.83;2.00;;;;;;;21.49;86.67;99927.66;5019141;28;20047;-38
2023/10/22 03:36:25;;;;;;;5.88;2.10;;;;;;;21.47;86.68;99925.22;5019087;28;20102;-47
2023/10/22 03:38:51;;;;;;;4.43;2.35;;;;;;;21.50;86.56;99934.00;5019137;28;20548;-49
2023/10/22 03:41:16;;;;;;;3.00;1.85;;;;;;;21.49;86.63;99941.44;5018390;28;20081;-47
2023/10/22 03:43:42;;;;;;;2.95;1.70;;;;;;;21.46;86.58;99945.66;5017678;28;20082;-48
2023/10/22 03:46:07;;;;;;;6.93;2.10;;;;;;;21.46;86.79;99942.91;5038507;28;20602;-39
2023/10/22 03:48:32;;;;;;;3.50;1.63;;;;;;;21.45;86.79;99945.97;5036584;28;20727;-40
2023/10/22 03:50:58;;;;;;;5.15;1.70;;;;;;;21.45;86.65;99951.50;5037634;28;20037;-39
2023/10/22 03:53:24;;;;;;;3.45;1.40;;;;;;;21.45;86.50;99957.00;5020343;28;20373;-39
2023/10/22 03:55:50;;;;;;;4.47;1.63;;;;;;;21.44;86.37;99961.69;5015318;28;20024;-39
2023/10/22 03:58:15;;;;;;;2.22;1.50;;;;;;;21.43;86.10;99971.09;5037600;28;20040;-39
2023/10/22 04:00:41;;;;;;;5.50;1.65;;;;;;;21.41;86.94;99976.13;5036001;28;20032;-39
2023/10/22 04:03:06;;;;;;;3.88;2.05;;;;;;;21.42;86.90;99985.19;5037644;28;20435;-39
2023/10/22 04:05:32;;;;;;;3.92;1.52;;;;;;;21.42;86.62;99988.78;5035808;28;20048;-38
2023/10/22 04:07:58;;;;;;;4.18;1.60;;;;;;;21.42;87.37;100001.75;5016579;28;20036;-38
2023/10/22 04:10:23;;;;;;;7.68;1.60;;;;;;;21.43;87.51;100004.16;5036241;28;20660;-41
2023/10/22 04:12:49;;;;;;;24.52;2.15;;;;;;;21.45;88.09;100014.91;5036097;28;20075;-40
2023/10/22 04:15:14;;;;;;;7.78;1.63;;;;;;;21.47;88.63;100021.72;5035780;28;20675;-40
2023/10/22 04:17:39;;;;;;;3.88;1.52;;;;;;;21.53;88.87;100025.13;5035493;28;20048;-41
2023/10/22 04:20:06;;;;;;;4.43;1.80;;;;;;;21.57;88.97;100030.81;5018257;28;20095;-41
2023/10/22 04:22:32;;;;;;;6.70;1.80;;;;;;;21.61;88.56;100027.13;5016930;28;20569;-40
2023/10/22 04:24:58;;;;;;;2.97;1.50;;;;;;;21.66;89.08;100033.63;5037264;28;20560;-38
2023/10/22 04:27:23;;;;;;;5.28;1.67;;;;;;;21.69;87.99;100038.50;5035222;28;20067;-39
2023/10/22 04:29:49;;;;;;;4.25;1.45;;;;;;;21.72;88.47;100043.38;5037049;28;20043;-38
2023/10/22 04:32:14;;;;;;;6.10;1.60;;;;;;;21.74;88.03;100047.44;5036669;28;20036;-38
2023/10/22 04:34:40;;;;;;;5.07;1.60;;;;;;;21.78;87.50;100061.38;5018032;28;20032;-38
2023/10/22 04:37:07;;;;;;;1.45;1.20;;;;;;;21.80;87.37;100054.41;5035159;28;20032;-38
2023/10/22 04:39:32;;;;;;;3.58;1.73;;;;;;;21.84;87.90;100062.03;5003544;28;20078;-39
2023/10/22 04:41:58;;;;;;;2.50;1.60;;;;;;;21.87;87.57;100064.16;5037478;28;20032;-38
2023/10/22 04:44:24;;;;;;;3.00;1.33;;;;;;;21.89;87.83;100070.97;5036325;28;21242;-39
2023/10/22 04:46:52;;;;;;;2.70;1.42;;;;;;;21.92;87.41;100069.53;5034746;28;20036;-40
2023/10/22 04:49:18;;;;;;;4.75;1.40;;;;;;;21.94;87.08;100078.28;5035903;28;20411;-39
2023/10/22 04:51:43;;;;;;;3.00;1.48;;;;;;;21.96;87.33;100082.34;5035452;28;21769;-41
2023/10/22 04:54:08;;;;;;;2.30;1.38;;;;;;;21.96;86.64;100078.75;5017518;28;20064;-41
2023/10/22 04:56:34;;;;;;;2.78;1.42;;;;;;;22.00;87.13;100079.75;5035101;28;20044;-41
2023/10/22 04:58:59;;;;;;;4.72;1.30;;;;;;;22.01;86.98;100084.16;5033165;28;20032;-41
2023/10/22 05:01:25;;;;;;;2.88;1.35;;;;;;;22.03;86.74;100081.06;5035052;28;20036;-39
2023/10/22 05:03:50;;;;;;;10.45;2.38;;;;;;;22.04;86.73;100083.50;5035021;28;21115;-40
2023/10/22 05:06:15;;;;;;;5.00;1.55;;;;;;;22.02;86.54;100087.72;5034890;28;20043;-40
2023/10/22 05:08:41;;;;;;;7.00;1.60;;;;;;;22.00;86.34;100084.44;4996700;28;20451;-40
2023/10/22 05:11:12;;;;;;;5.10;1.40;;;;;;;21.96;86.56;100092.56;5032069;28;20075;-40
2023/10/22 05:13:38;;;;;;;4.28;1.20;;;;;;;21.92;85.67;100097.91;5036039;28;20563;-40
2023/10/22 05:16:03;;;;;;;6.20;1.42;;;;;;;21.91;85.61;100101.81;5015377;28;20433;-40
2023/10/22 05:18:28;;;;;;;3.35;1.45;;;;;;;21.90;85.87;100102.94;5032879;28;20105;-40
2023/10/22 05:21:04;;;;;;;3.50;1.20;;;;;;;21.84;86.03;100104.25;5014596;28;20441;-40
2023/10/22 05:23:30;;;;;;;3.00;1.20;;;;;;;21.80;85.71;100109.59;5014402;28;20143;-39
2023/10/22 05:26:07;;;;;;;5.53;1.73;;;;;;;21.79;85.30;100115.44;5036950;28;20046;-40
2023/10/22 05:28:32;;;;;;;3.30;1.30;;;;;;;21.78;85.89;100125.63;5036751;28;20459;-39
2023/10/22 05:30:57;;;;;;;4.30;1.75;;;;;;;21.76;85.70;100133.41;5034933;28;20052;-39
2023/10/22 05:33:23;;;;;;;2.28;1.55;;;;;;;21.74;85.34;100140.38;5016528;28;20044;-39
2023/10/22 05:35:48;;;;;;;2.33;1.42;;;;;;;21.74;84.79;100141.19;5018995;28;20131;-39
2023/10/22 05:38:14;;;;;;;2.63;1.20;;;;;;;21.74;84.69;100149.47;5041025;28;20629;-40
2023/10/22 05:40:39;;;;;;;2.83;1.30;;;;;;;21.74;84.35;100157.75;5039356;28;20028;-39
2023/10/22 05:43:04;;;;;;;1.42;1.20;;;;;;;21.72;84.74;100151.72;5037606;28;20036;-39
2023/10/22 05:45:30;;;;;;;2.63;1.30;;;;;;;21.69;84.81;100157.91;5037912;28;20529;-39
2023/10/22 05:47:55;;;;;;;1.42;1.10;;;;;;;21.66;85.02;100164.03;5035596;28;20029;-39
2023/10/22 05:50:20;;;;;;;2.15;1.20;;;;;;;21.66;84.72;100166.78;5019404;28;20037;-41
2023/10/22 05:52:50;;;;;;;3.58;1.48;;;;;;;21.64;85.18;100169.03;5037476;28;20032;-41
2023/10/22 05:55:15;;;;;;;2.33;1.05;;;;;;;21.62;84.95;100183.16;5039032;28;20361;-39
2023/10/22 05:57:43;;;;;;;1.65;1.20;;;;;;;21.62;84.73;100185.13;5019428;28;20072;-39
2023/10/22 06:00:09;;;;;;;3.30;1.13;;;;;;;21.62;84.78;100194.19;5038078;28;20523;-40
2023/10/22 06:02:35;;;;;;;1.50;1.20;;;;;;;21.61;85.15;100206.34;5036109;28;20032;-39
2023/10/22 06:05:00;;;;;;;1.77;1.20;;;;;;;21.58;85.16;100207.00;5036923;28;20040;-39
2023/10/22 06:07:25;;;;;;;4.28;1.40;;;;;;;21.58;85.30;100208.91;5018308;28;20615;-46
2023/10/22 06:09:51;;;;;;;2.63;1.67;;;;;;;21.56;85.37;100216.69;5017697;28;20035;-45
2023/10/22 06:12:16;;;;;;;2.22;1.17;;;;;;;21.54;85.44;100219.72;5037240;28;20145;-45
2023/10/22 06:14:41;;;;;;;2.90;1.20;;;;;;;21.55;85.95;100226.06;5038304;28;20044;-45
2023/10/22 06:17:07;;;;;;;1.38;0.95;;;;;;;21.59;85.69;100235.38;5037179;28;21124;-44
2023/10/22 06:19:33;;;;;;;1.42;1.10;;;;;;;21.63;85.49;100234.41;5019149;28;20129;-45
2023/10/22 06:21:58;;;;;;;1.52;1.00;;;;;;;21.70;85.39;100233.16;5036708;28;21060;-44
2023/10/22 06:24:23;;;;;;;3.47;1.20;;;;;;;21.79;85.08;100234.81;5035665;28;20037;-45
2023/10/22 06:26:49;;;;;;;3.08;1.00;;;;;;;21.89;84.58;100235.69;5037114;28;20052;-45
2023/10/22 06:29:14;;;;;;;3.25;1.17;;;;;;;21.99;84.09;100240.13;5036514;28;20395;-47
2023/10/22 06:31:39;;;;;;;3.22;1.30;;;;;;;22.08;83.72;100249.22;5034939;28;20242;-45
2023/10/22 06:34:05;;;;;;;2.85;1.00;;;;;;;22.15;83.57;100246.81;5016680;28;20492;-45
2023/10/22 06:36:30;;;;;;;2.80;1.10;;;;;;;22.19;83.21;100247.78;5038467;28;20032;-46
2023/10/22 06:38:56;;;;;;;2.90;1.15;;;;;;;22.23;83.41;100259.00;5037220;28;20040;-46
2023/10/22 06:41:22;;;;;;;1.98;1.40;;;;;;;22.24;82.86;100268.91;5020240;28;20107;-44
2023/10/22 06:43:48;;;;;;;1.52;1.00;;;;;;;22.24;83.25;100278.03;5036451;28;20131;-46
2023/10/22 06:46:14;;;;;;;2.50;1.17;;;;;;;22.27;83.22;100276.56;5037001;28;20278;-46
2023/10/22 06:48:40;;;;;;;1.48;0.98;;;;;;;22.28;82.76;100284.53;5035527;28;20052;-44
2023/10/22 06:51:10;;;;;;;3.08;1.20;;;;;;;22.30;82.48;100284.19;5037992;28;20089;-45
2023/10/22 06:53:39;;;;;;;2.15;0.93;;;;;;;22.30;82.77;100295.25;5038399;28;20016;-45
2023/10/22 06:56:05;;;;;;;1.60;1.08;;;;;;;22.29;82.41;100299.13;5039278;28;20029;-46
2023/10/22 06:58:31;;;;;;;3.88;1.25;;;;;;;22.26;82.82;100305.31;5038146;28;20109;-46
2023/10/22 07:01:05;;;;;;;2.25;1.10;;;;;;;22.25;82.85;100315.50;5039649;28;20090;-46
2023/10/22 07:03:31;;;;;;;1.80;1.00;;;;;;;22.23;83.06;100316.97;5039997;28;20093;-44
2023/10/22 07:05:57;;;;;;;1.83;1.20;;;;;;;22.21;82.63;100327.53;5039323;28;20273;-46
2023/10/22 07:08:23;;;;;;;4.15;1.52;;;;;;;22.18;82.96;100323.47;5037822;28;20036;-45
2023/10/22 07:10:48;;;;;;;3.15;1.10;;;;;;;22.18;83.09;100333.69;5037879;28;20155;-45
2023/10/22 07:13:13;;;;;;;4.07;1.27;;;;;;;22.16;83.10;100330.41;5037534;28;20035;-46
2023/10/22 07:15:39;;;;;;;2.78;1.10;;;;;;;22.16;83.24;100335.94;5037258;28;20085;-46
2023/10/22 07:18:04;;;;;;;2.38;1.08;;;;;;;22.16;82.96;100339.53;5034851;28;20040;-46
2023/10/22 07:20:30;;;;;;;2.83;1.20;;;;;;;22.16;83.05;100353.31;5012636;28;20265;-47
2023/10/22 07:22:55;;;;;;;2.42;1.10;;;;;;;22.16;82.90;100350.56;4985332;28;20052;-46
2023/10/22 07:25:20;;;;;;;2.33;1.20;;;;;;;22.18;82.89;100355.75;5020082;28;20463;-44
2023/10/22 07:27:46;;;;;;;1.77;1.20;;;;;;;22.18;82.78;100359.34;5017536;28;20081;-44
2023/10/22 07:30:11;;;;;;;3.55;1.30;;;;;;;22.22;82.74;100365.00;5016327;28;20090;-46
2023/10/22 07:32:37;;;;;;;1.42;1.25;;;;;;;22.22;82.78;100373.28;5013038;28;20044;-48
2023/10/22 07:35:03;;;;;;;2.75;1.30;;;;;;;22.23;82.14;100372.16;5017053;28;20183;-48
2023/10/22 07:37:28;;;;;;;3.63;1.30;;;;;;;22.23;82.24;100370.25;5015423;28;20047;-45
2023/10/22 07:39:53;;;;;;;1.20;1.10;;;;;;;22.24;82.34;100377.41;5001932;28;20381;-45
2023/10/22 07:42:19;;;;;;;2.03;1.15;;;;;;;22.24;82.10;100384.84;5016125;28;20485;-46
2023/10/22 07:44:44;;;;;;;1.98;1.13;;;;;;;22.21;82.23;100380.78;5016655;28;20040;-40
2023/10/22 07:47:10;;;;;;;2.78;1.27;;;;;;;22.22;81.94;100387.94;5016095;28;20489;-40
2023/10/22 07:49:35;;;;;;;2.38;1.33;;;;;;;22.23;82.18;100385.97;5016086;28;20041;-40
2023/10/22 07:52:00;;;;;;;2.75;1.38;;;;;;;22.24;82.08;100399.47;5018023;28;20032;-40
2023/10/22 07:54:26;;;;;;;2.20;1.30;;;;;;;22.25;82.08;100406.59;5015759;28;20045;-40
2023/10/22 07:56:51;;;;;;;1.40;1.10;;;;;;;22.25;81.63;100394.75;5001410;28;20386;-40
2023/10/22 07:59:17;;;;;;;1.98;1.15;;;;;;;22.26;81.63;100405.47;5015332;28;20031;-40
2023/10/22 08:01:42;;;;;;;1.63;1.10;;;;;;;22.27;81.42;100409.06;5013122;28;20114;-40
2023/10/22 08:04:07;;;;;;;4.50;1.20;;;;;;;22.25;81.65;100411.31;5000084;28;20099;-40
2023/10/22 08:06:33;;;;;;;3.05;1.20;;;;;;;22.22;81.97;100423.81;5015505;28;20864;-40
2023/10/22 08:08:58;;;;;;;2.50;1.38;;;;;;;22.20;81.69;100419.75;5014789;28;20467;-40
2023/10/22 08:11:24;;;;;;;2.03;1.27;;;;;;;22.19;81.98;100426.38;4997547;28;20322;-40
2023/10/22 08:13:49;;;;;;;1.55;1.20;;;;;;;22.18;82.05;100427.50;5016084;28;20410;-40
2023/10/22 08:16:14;;;;;;;2.33;1.45;;;;;;;22.15;81.78;100431.72;5015804;28;20037;-40
2023/10/22 08:18:41;;;;;;;3.40;1.50;;;;;;;22.11;81.88;100437.06;5019509;28;20438;-40
2023/10/22 08:21:08;;;;;;;2.63;1.38;;;;;;;22.09;82.04;100441.25;5034844;28;20400;-40
2023/10/22 08:23:33;;;;;;;1.65;1.55;;;;;;;22.09;82.20;100446.78;5036861;28;20025;-40
2023/10/22 08:25:59;;;;;;;4.03;1.50;;;;;;;22.05;81.83;100441.06;5034534;28;20173;-39
2023/10/22 08:28:24;;;;;;;4.70;1.88;;;;;;;22.04;81.88;100444.16;5034525;28;20085;-39
2023/10/22 08:30:50;;;;;;;2.40;1.30;;;;;;;22.00;81.63;100443.97;5016319;28;20036;-40
2023/10/22 08:33:16;;;;;;;4.00;1.50;;;;;;;21.98;82.12;100446.22;5016955;28;20515;-40
2023/10/22 08:35:42;;;;;;;3.10;1.65;;;;;;;21.96;81.90;100448.47;5034706;28;20079;-40
2023/10/22 08:38:08;;;;;;;4.15;1.60;;;;;;;21.94;81.86;100451.53;5034104;28;20029;-39
2023/10/22 08:40:38;;;;;;;5.10;1.60;;;;;;;21.93;81.65;100452.66;5034501;28;20045;-39
2023/10/22 08:43:16;;;;;;;3.72;1.60;;;;;;;21.91;81.97;100456.88;5034361;28;20436;-39
2023/10/22 08:45:45;;;;;;;3.67;1.40;;;;;;;21.91;81.96;100462.38;5033217;28;20028;-39
2023/10/22 08:48:12;;;;;;;5.25;1.60;;;;;;;21.87;81.94;100464.94;5033028;28;21725;-38
2023/10/22 08:50:38;;;;;;;4.05;1.80;;;;;;;21.85;81.63;100469.97;5032548;28;20028;-39
2023/10/22 08:53:03;;;;;;;3.20;1.40;;;;;;;21.84;82.09;100473.03;5036243;28;21956;-40
2023/10/22 08:55:30;;;;;;;2.58;1.45;;;;;;;21.82;81.59;100481.63;5017518;28;20487;-39
2023/10/22 08:57:59;;;;;;;3.13;1.45;;;;;;;21.81;82.10;100482.75;5034753;28;20032;-38
2023/10/22 09:00:26;;;;;;;5.97;1.63;;;;;;;21.78;81.98;100488.91;5035066;28;20528;-39
2023/10/22 09:02:52;;;;;;;3.65;1.50;;;;;;;21.79;82.04;100498.81;5034566;28;20671;-39
2023/10/22 09:05:19;;;;;;;2.80;1.40;;;;;;;21.76;81.80;100491.94;5034091;28;20111;-39
2023/10/22 09:07:52;;;;;;;6.13;1.88;;;;;;;21.76;81.99;100500.22;5036048;28;20071;-39
2023/10/22 09:10:31;;;;;;;3.95;1.30;;;;;;;21.75;82.21;100503.31;5035168;28;20570;-39
2023/10/22 09:13:16;;;;;;;2.83;1.63;;;;;;;21.75;82.51;100506.06;5016487;28;20032;-39
2023/10/22 09:15:47;;;;;;;5.30;1.52;;;;;;;21.74;82.22;100510.78;5033965;28;20033;-39
2023/10/22 09:18:13;;;;;;;2.72;1.30;;;;;;;21.75;81.93;100511.56;5027999;28;20507;-39
2023/10/22 09:20:40;;;;;;;2.97;1.55;;;;;;;21.74;82.06;100512.69;5033637;28;20056;-39
2023/10/22 09:23:19;;;;;;;3.85;1.50;;;;;;;21.72;82.03;100520.47;5030746;28;20920;-41
2023/10/22 09:25:52;;;;;;;2.55;1.27;;;;;;;21.71;82.32;100524.38;5032705;28;20036;-39
2023/10/22 09:28:22;;;;;;;3.95;1.65;;;;;;;21.70;82.30;100522.72;4998578;28;20047;-45
2023/10/22 09:30:59;;;;;;;2.25;1.40;;;;;;;21.69;82.65;100537.63;5034086;28;20567;-47
2023/10/22 09:33:35;;;;;;;2.33;1.30;;;;;;;21.66;82.80;100528.03;5031155;28;20432;-44
2023/10/22 09:36:03;;;;;;;3.42;1.50;;;;;;;21.66;82.56;100532.75;5031822;28;20544;-48
2023/10/22 09:38:45;;;;;;;1.60;1.17;;;;;;;21.62;83.07;100538.88;5031552;28;20108;-46
2023/10/22 09:41:13;;;;;;;3.13;1.20;;;;;;;21.63;82.92;100548.78;5030749;28;20454;-44
2023/10/22 09:43:39;;;;;;;3.42;1.35;;;;;;;21.62;83.15;100546.34;5028327;28;21411;-48
2023/10/22 09:46:08;;;;;;;3.63;1.40;;;;;;;21.62;83.03;100549.09;5033299;28;20067;-45
2023/10/22 09:48:35;;;;;;;3.60;1.52;;;;;;;21.63;82.83;100551.53;5015101;28;20450;-45
2023/10/22 09:51:04;;;;;;;3.50;1.60;;;;;;;21.63;83.10;100540.50;5030043;28;20106;-44
2023/10/22 09:53:36;;;;;;;2.63;1.50;;;;;;;21.64;83.40;100535.81;4996312;28;20364;-45
2023/10/22 09:56:06;;;;;;;3.63;1.40;;;;;;;21.67;83.80;100540.72;5031872;28;20175;-47
2023/10/22 09:58:39;;;;;;;1.40;1.17;;;;;;;21.70;84.24;100542.03;5030095;28;20029;-45
2023/10/22 10:01:06;;;;;;;1.60;1.17;;;;;;;21.74;83.98;100543.88;5031632;28;20170;-47
2023/10/22 10:03:32;;;;;;;2.80;1.58;;;;;;;21.77;83.96;100548.75;5011988;28;20123;-46
2023/10/22 10:05:57;;;;;;;3.97;1.00;;;;;;;21.80;83.79;100547.31;5032420;28;20032;-45
2023/10/22 10:08:24;;;;;;;7.07;1.73;;;;;;;21.82;84.19;100561.63;5033590;28;20032;-45
2023/10/22 10:10:51;;;;;;;5.40;1.35;;;;;;;21.85;84.37;100561.00;5015342;28;20036;-45
2023/10/22 10:13:17;;;;;;;3.25;1.30;;;;;;;21.87;84.38;100567.00;5037434;28;20062;-45
2023/10/22 10:15:43;;;;;;;2.95;1.13;;;;;;;21.91;84.00;100573.56;5036232;28;20106;-46
2023/10/22 10:18:09;;;;;;;1.73;1.17;;;;;;;21.94;84.25;100574.88;5036110;28;20032;-39
2023/10/22 10:20:38;;;;;;;2.25;1.13;;;;;;;21.93;84.23;100571.28;5024010;28;20048;-47
2023/10/22 10:23:08;;;;;;;1.58;1.23;;;;;;;21.96;83.84;100578.97;5032235;28;20290;-47
2023/10/22 10:25:36;;;;;;;2.55;1.20;;;;;;;22.00;83.98;100581.09;5019688;28;20368;-46
2023/10/22 10:28:09;;;;;;;1.75;1.17;;;;;;;22.00;83.93;100592.13;5039623;28;20115;-45
2023/10/22 10:30:35;;;;;;;2.50;1.25;;;;;;;22.02;84.41;100587.13;5038692;28;20111;-47
2023/10/22 10:33:01;;;;;;;3.35;1.08;;;;;;;22.04;84.16;100591.19;5039255;28;20036;-46
2023/10/22 10:35:27;;;;;;;2.58;1.30;;;;;;;22.07;83.96;100590.59;5038664;28;20070;-45
2023/10/22 10:38:11;;;;;;;2.95;1.55;;;;;;;22.10;84.36;100583.63;5038797;28;20319;-46
2023/10/22 10:40:42;;;;;;;1.77;1.15;;;;;;;22.12;83.85;100601.50;5038438;28;20615;-48
2023/10/22 10:43:07;;;;;;;3.85;1.23;;;;;;;22.15;83.95;100597.31;5040645;28;20028;-48
2023/10/22 10:45:33;;;;;;;15.05;2.05;;;;;;;22.18;84.12;100604.97;5037415;28;20043;-39
2023/10/22 10:47:58;;;;;;;4.50;1.40;;;;;;;22.22;84.03;100600.47;5038927;28;20032;-39
2023/10/22 10:50:24;;;;;;;8.48;1.85;;;;;;;22.28;84.07;100601.97;5039327;28;20028;-39
2023/10/22 10:52:49;;;;;;;18.73;1.80;;;;;;;22.35;84.02;100614.53;5038946;28;20029;-40
2023/10/22 10:55:15;;;;;;;6.13;1.50;;;;;;;22.38;84.12;100606.47;5038923;28;20770;-42
2023/10/22 10:57:46;;;;;;;11.32;1.88;;;;;;;22.42;84.01;100604.72;5037483;28;20447;-42
2023/10/22 11:00:21;;;;;;;4.70;1.10;;;;;;;22.46;83.86;100612.38;5037879;28;20036;-43
2023/10/22 11:02:57;;;;;;;7.38;1.70;;;;;;;22.48;83.72;100612.88;5038757;28;20032;-43
2023/10/22 11:05:29;;;;;;;5.72;2.08;;;;;;;22.52;83.57;100608.38;5039009;28;20043;-43
2023/10/22 11:07:55;;;;;;;10.20;1.88;;;;;;;22.53;83.09;100610.00;5035246;28;20036;-44
2023/10/22 11:10:21;;;;;;;6.05;1.50;;;;;;;22.55;83.12;100596.66;5035888;28;20063;-40
2023/10/22 11:12:46;;;;;;;5.68;1.50;;;;;;;22.59;82.83;100600.47;5036231;28;20037;-41
2023/10/22 11:15:13;;;;;;;1.67;1.42;;;;;;;22.61;82.99;100600.94;5036500;28;20037;-40
2023/10/22 11:17:40;;;;;;;7.13;1.48;;;;;;;22.63;83.44;100608.94;5036398;28;20426;-41
2023/10/22 11:20:06;;;;;;;4.90;1.33;;;;;;;;;;5024706;28;20391;-42
2023/10/22 11:22:32;;;;;;;6.40;1.15;;;;;;;22.68;82.79;100611.56;5016449;28;20394;-43
2023/10/22 11:25:02;;;;;;;1.55;1.30;;;;;;;22.70;83.13;100614.84;5015511;28;20231;-43
2023/10/22 11:27:30;;;;;;;4.50;1.15;;;;;;;22.71;83.02;100621.97;5016468;28;20044;-44